createdAt,value
2023-01-17T00:02:15.035Z,100547.34
2023-01-17T00:05:42.018Z,100544.03
2023-01-17T00:09:08.994Z,100547.45
2023-01-17T00:12:30.783Z,100553.98
2023-01-17T00:15:59.564Z,100556.70
2023-01-17T00:19:28.825Z,100560.63
2023-01-17T00:22:55.847Z,100567.02
2023-01-17T00:26:24.602Z,100571.29
2023-01-17T00:29:33.410Z,100571.00
2023-01-17T00:32:45.154Z,100575.10
2023-01-17T00:35:54.129Z,100572.09
2023-01-17T00:39:03.029Z,100570.30
2023-01-17T00:42:11.861Z,100572.31
2023-01-17T00:45:37.763Z,100576.03
2023-01-17T00:48:44.246Z,100577.98
2023-01-17T00:52:03.840Z,100583.27
2023-01-17T00:55:24.253Z,100589.71
2023-01-17T00:58:47.833Z,100597.71
2023-01-17T01:02:14.457Z,100600.19
2023-01-17T01:05:24.398Z,100611.47
2023-01-17T01:09:00.064Z,100616.20
2023-01-17T01:12:13.278Z,100616.97
2023-01-17T01:15:40.877Z,100617.04
2023-01-17T01:19:08.304Z,100619.16
2023-01-17T01:22:36.393Z,100617.30
2023-01-17T01:26:04.443Z,100620.30
2023-01-17T01:29:24.470Z,100625.02
2023-01-17T01:32:51.666Z,100629.89
2023-01-17T01:36:21.037Z,100629.63
2023-01-17T01:39:51.037Z,100634.55
2023-01-17T01:43:20.468Z,100637.35
2023-01-17T01:46:49.293Z,100640.89
2023-01-17T01:50:20.769Z,100643.44
2023-01-17T01:53:49.860Z,100643.19
2023-01-17T01:57:19.237Z,100645.56
2023-01-17T02:00:51.261Z,100645.33
2023-01-17T02:04:13.508Z,100645.44
2023-01-17T02:07:42.666Z,100647.09
2023-01-17T02:11:14.801Z,100648.56
2023-01-17T02:14:43.751Z,100654.38
2023-01-17T02:18:15.407Z,100657.23
2023-01-17T02:21:48.406Z,100662.55
2023-01-17T02:25:23.636Z,100658.05
2023-01-17T02:29:07.609Z,100659.92
2023-01-17T02:32:37.427Z,100664.49
2023-01-17T02:36:12.352Z,100671.50
2023-01-17T02:39:47.636Z,100677.00
2023-01-17T02:43:19.607Z,100676.79
2023-01-17T02:46:48.920Z,100684.16
2023-01-17T02:50:10.729Z,100686.02
2023-01-17T02:53:51.575Z,100681.52
2023-01-17T02:57:20.407Z,100689.11
2023-01-17T03:00:57.923Z,100694.98
2023-01-17T03:04:34.747Z,100697.56
2023-01-17T03:07:56.328Z,100697.22
2023-01-17T03:11:25.363Z,100698.77
2023-01-17T03:14:54.905Z,100702.89
2023-01-17T03:18:18.608Z,100710.11
2023-01-17T03:21:47.764Z,100715.79
2023-01-17T03:25:17.144Z,100713.38
2023-01-17T03:28:46.333Z,100720.08
2023-01-17T03:32:19.806Z,100723.66
2023-01-17T03:35:49.220Z,100720.68
2023-01-17T03:39:18.482Z,100721.64
2023-01-17T03:42:43.616Z,100723.96
2023-01-17T03:46:05.040Z,100727.86
2023-01-17T03:49:34.366Z,100733.70
2023-01-17T03:52:47.883Z,100734.36
2023-01-17T03:56:17.117Z,100735.91
2023-01-17T03:59:46.273Z,100739.48
2023-01-17T04:03:15.817Z,100742.58
2023-01-17T04:06:45.761Z,100749.39
2023-01-17T04:10:14.619Z,100753.96
2023-01-17T04:13:44.140Z,100757.17
2023-01-17T04:17:13.376Z,100756.13
2023-01-17T04:20:42.138Z,100759.94
2023-01-17T04:24:11.506Z,100759.45
2023-01-17T04:27:40.565Z,100763.10
2023-01-17T04:31:10.137Z,100764.71
2023-01-17T04:34:38.944Z,100768.39
2023-01-17T04:38:07.770Z,100772.42
2023-01-17T04:41:29.672Z,100767.40
2023-01-17T04:44:58.516Z,100768.61
2023-01-17T04:48:26.386Z,100768.48
2023-01-17T04:51:55.284Z,100768.48
2023-01-17T04:55:07.502Z,100774.84
2023-01-17T04:58:37.169Z,100777.56
2023-01-17T05:02:06.357Z,100778.02
2023-01-17T05:05:35.232Z,100785.23
2023-01-17T05:09:04.370Z,100783.30
2023-01-17T05:12:33.557Z,100786.84
2023-01-17T05:16:02.802Z,100787.15
2023-01-17T05:19:34.960Z,100789.84
2023-01-17T05:22:56.605Z,100797.02
2023-01-17T05:26:26.063Z,100801.11
2023-01-17T05:29:55.626Z,100801.41
2023-01-17T05:33:24.905Z,100802.42
2023-01-17T05:36:44.579Z,100804.77
2023-01-17T05:40:13.720Z,100808.54
2023-01-17T05:43:33.393Z,100812.28
2023-01-17T05:47:02.200Z,100811.20
2023-01-17T05:50:30.176Z,100812.57
2023-01-17T05:53:59.312Z,100818.94
2023-01-17T05:57:27.236Z,100820.15
2023-01-17T06:00:56.610Z,100818.39
2023-01-17T06:04:25.404Z,100818.86
2023-01-17T06:07:54.211Z,100829.20
2023-01-17T06:11:23.141Z,100831.63
2023-01-17T06:14:52.427Z,100833.52
2023-01-17T06:18:11.859Z,100835.92
2023-01-17T06:21:40.855Z,100838.65
2023-01-17T06:25:09.572Z,100835.97
2023-01-17T06:28:38.845Z,100835.61
2023-01-17T06:32:07.906Z,100836.06
2023-01-17T06:35:37.056Z,100836.86
2023-01-17T06:39:06.113Z,100839.22
2023-01-17T06:42:34.786Z,100842.65
2023-01-17T06:46:04.075Z,100850.17
2023-01-17T06:49:33.209Z,100855.99
2023-01-17T06:53:02.095Z,100858.13
2023-01-17T06:56:30.994Z,100864.39
2023-01-17T06:59:40.283Z,100865.66
2023-01-17T07:03:09.121Z,100870.87
2023-01-17T07:06:38.243Z,100871.61
2023-01-17T07:10:07.519Z,100870.17
2023-01-17T07:13:42.217Z,100873.04
2023-01-17T07:17:11.699Z,100869.77
2023-01-17T07:20:40.485Z,100869.98
2023-01-17T07:24:09.653Z,100874.16
2023-01-17T07:27:38.769Z,100875.05
2023-01-17T07:31:06.607Z,100873.39
2023-01-17T07:34:35.911Z,100876.75
2023-01-17T07:38:05.255Z,100880.71
2023-01-17T07:41:34.129Z,100881.33
2023-01-17T07:44:52.930Z,100884.58
2023-01-17T07:48:21.818Z,100884.13
2023-01-17T07:51:53.551Z,100880.95
2023-01-17T07:55:22.688Z,100879.96
2023-01-17T07:58:51.408Z,100889.36
2023-01-17T08:02:20.561Z,100897.59
2023-01-17T08:05:42.155Z,100903.20
2023-01-17T08:08:59.511Z,100910.53
2023-01-17T08:12:28.395Z,100911.52
2023-01-17T08:16:06.438Z,100914.79
2023-01-17T08:19:35.664Z,100914.02
2023-01-17T08:23:04.836Z,100909.47
2023-01-17T08:26:33.803Z,100910.83
2023-01-17T08:30:02.563Z,100907.70
2023-01-17T08:33:31.193Z,100914.27
2023-01-17T08:37:00.031Z,100915.30
2023-01-17T08:40:21.132Z,100915.83
2023-01-17T08:43:55.691Z,100915.15
2023-01-17T08:47:24.949Z,100917.21
2023-01-17T08:50:53.893Z,100910.33
2023-01-17T08:54:23.392Z,100910.96
2023-01-17T08:57:42.388Z,100913.20
2023-01-17T09:01:04.257Z,100913.42
2023-01-17T09:04:33.945Z,100913.67
2023-01-17T09:08:03.087Z,100915.99
2023-01-17T09:11:24.163Z,100919.95
2023-01-17T09:14:53.408Z,100925.30
2023-01-17T09:18:22.945Z,100935.63
2023-01-17T09:21:52.123Z,100937.17
2023-01-17T09:25:21.541Z,100938.41
2023-01-17T09:28:51.839Z,100939.65
2023-01-17T09:32:20.521Z,100937.15
2023-01-17T09:35:49.271Z,100944.33
2023-01-17T09:39:18.387Z,100947.30
2023-01-17T09:43:02.489Z,100948.73
2023-01-17T09:46:34.644Z,100946.33
2023-01-17T09:50:14.942Z,100953.77
2023-01-17T09:53:44.301Z,100961.25
2023-01-17T09:57:13.691Z,100961.81
2023-01-17T10:00:46.216Z,100966.15
2023-01-17T10:04:25.241Z,100967.90
2023-01-17T10:08:21.346Z,100968.58
2023-01-17T10:12:05.044Z,100971.45
2023-01-17T10:15:46.206Z,100974.87
2023-01-17T10:19:12.996Z,100981.95
2023-01-17T10:22:52.860Z,100987.98
2023-01-17T10:26:34.371Z,100993.41
2023-01-17T10:30:03.651Z,100997.60
2023-01-17T10:33:32.602Z,101001.30
2023-01-17T10:37:08.068Z,101002.56
2023-01-17T10:40:37.138Z,101005.84
2023-01-17T10:44:27.119Z,101003.50
2023-01-17T10:47:56.416Z,101007.84
2023-01-17T10:51:25.634Z,101007.62
2023-01-17T10:55:09.870Z,101001.92
2023-01-17T10:58:42.071Z,100999.02
2023-01-17T11:02:20.039Z,101002.90
2023-01-17T11:05:48.840Z,101008.32
2023-01-17T11:09:17.743Z,101004.13
2023-01-17T11:12:46.581Z,101009.98
2023-01-17T11:16:18.973Z,101008.64
2023-01-17T11:19:57.397Z,101012.05
2023-01-17T11:23:26.020Z,101018.21
2023-01-17T11:26:55.066Z,101020.61
2023-01-17T11:30:30.264Z,101021.11
2023-01-17T11:34:08.441Z,101026.05
2023-01-17T11:37:35.985Z,101027.20
2023-01-17T11:41:11.515Z,101027.30
2023-01-17T11:44:40.931Z,101029.45
2023-01-17T11:48:16.555Z,101034.50
2023-01-17T11:52:00.890Z,101038.05
2023-01-17T11:55:30.153Z,101042.28
2023-01-17T11:58:58.839Z,101045.96
2023-01-17T12:02:28.508Z,101051.25
2023-01-17T12:05:57.635Z,101050.00
2023-01-17T12:09:20.726Z,101055.95
2023-01-17T12:13:06.608Z,101048.95
2023-01-17T12:16:21.125Z,101050.74
2023-01-17T12:19:52.965Z,101049.03
2023-01-17T12:23:27.611Z,101050.59
2023-01-17T12:27:02.435Z,101054.63
2023-01-17T12:30:39.550Z,101058.33
2023-01-17T12:34:20.741Z,101063.77
2023-01-17T12:38:05.310Z,101066.41
2023-01-17T12:41:49.450Z,101068.15
2023-01-17T12:45:17.232Z,101069.39
2023-01-17T12:48:40.314Z,101071.15
2023-01-17T12:52:47.481Z,101067.55
2023-01-17T12:56:01.887Z,101070.52
2023-01-17T12:59:23.833Z,101069.69
2023-01-17T13:02:55.944Z,101072.48
2023-01-17T13:06:18.507Z,101075.13
2023-01-17T13:09:47.812Z,101074.27
2023-01-17T13:13:17.054Z,101073.97
2023-01-17T13:16:45.984Z,101069.89
2023-01-17T13:20:24.319Z,101067.67
2023-01-17T13:23:58.592Z,101065.11
2023-01-17T13:27:33.303Z,101066.02
2023-01-17T13:31:11.699Z,101066.45
2023-01-17T13:34:49.485Z,101070.17
2023-01-17T13:38:30.856Z,101071.28
2023-01-17T13:42:01.167Z,101069.07
2023-01-17T13:45:30.405Z,101069.91
2023-01-17T13:49:14.579Z,101067.17
2023-01-17T13:53:01.128Z,101066.63
2023-01-17T13:56:43.165Z,101066.59
2023-01-17T14:00:11.796Z,101069.04
2023-01-17T14:03:40.703Z,101071.45
2023-01-17T14:07:02.287Z,101072.30
2023-01-17T14:10:31.339Z,101078.30
2023-01-17T14:14:09.439Z,101079.16
2023-01-17T14:17:38.539Z,101079.24
2023-01-17T14:21:07.856Z,101081.55
2023-01-17T14:24:37.134Z,101086.27
2023-01-17T14:28:18.275Z,101086.73
2023-01-17T14:31:47.731Z,101090.63
2023-01-17T14:35:09.252Z,101087.94
2023-01-17T14:38:33.910Z,101094.94
2023-01-17T14:42:09.004Z,101101.92
2023-01-17T14:45:50.329Z,101097.50
2023-01-17T14:49:19.345Z,101099.03
2023-01-17T14:52:48.427Z,101103.95
2023-01-17T14:56:17.457Z,101108.73
2023-01-17T14:59:46.928Z,101107.50
2023-01-17T15:03:16.171Z,101106.46
2023-01-17T15:06:48.242Z,101103.87
2023-01-17T15:10:20.217Z,101108.67
2023-01-17T15:13:49.233Z,101108.60
2023-01-17T15:17:24.871Z,101112.02
2023-01-17T15:20:54.191Z,101109.08
2023-01-17T15:24:26.111Z,101111.45
2023-01-17T15:27:55.238Z,101114.51
2023-01-17T15:31:24.566Z,101117.61
2023-01-17T15:34:47.633Z,101114.52
2023-01-17T15:38:39.097Z,101113.73
2023-01-17T15:41:57.672Z,101115.30
2023-01-17T15:45:26.785Z,101123.40
2023-01-17T15:48:53.242Z,101128.60
2023-01-17T15:52:34.344Z,101126.18
2023-01-17T15:56:15.403Z,101132.30
2023-01-17T15:59:29.190Z,101133.21
2023-01-17T16:03:07.821Z,101141.21
2023-01-17T16:06:36.983Z,101143.98
2023-01-17T16:10:00.676Z,101146.61
2023-01-17T16:13:29.909Z,101147.71
2023-01-17T16:17:14.631Z,101142.97
2023-01-17T16:20:43.754Z,101145.11
2023-01-17T16:24:12.761Z,101145.02
2023-01-17T16:27:41.752Z,101147.78
2023-01-17T16:31:02.219Z,101152.83
2023-01-17T16:34:20.233Z,101155.29
2023-01-17T16:37:49.217Z,101157.42
2023-01-17T16:41:18.135Z,101161.22
2023-01-17T16:44:47.274Z,101166.45
2023-01-17T16:48:18.274Z,101171.51
2023-01-17T16:51:48.417Z,101179.14
2023-01-17T16:55:17.627Z,101187.98
2023-01-17T16:58:46.888Z,101195.14
2023-01-17T17:02:06.951Z,101195.71
2023-01-17T17:05:42.098Z,101196.10
2023-01-17T17:09:01.708Z,101199.61
2023-01-17T17:12:30.927Z,101201.73
2023-01-17T17:16:00.034Z,101202.80
2023-01-17T17:19:19.388Z,101201.27
2023-01-17T17:22:48.602Z,101199.48
2023-01-17T17:26:17.656Z,101200.42
2023-01-17T17:29:47.019Z,101207.25
2023-01-17T17:33:16.192Z,101211.85
2023-01-17T17:36:46.303Z,101210.58
2023-01-17T17:40:05.056Z,101211.34
2023-01-17T17:43:33.925Z,101209.39
2023-01-17T17:46:52.013Z,101214.34
2023-01-17T17:50:21.104Z,101211.92
2023-01-17T17:53:50.232Z,101220.88
2023-01-17T17:57:18.933Z,101221.39
2023-01-17T18:00:48.059Z,101221.39
2023-01-17T18:04:17.025Z,101221.68
2023-01-17T18:07:46.226Z,101214.70
2023-01-17T18:11:15.365Z,101215.80
2023-01-17T18:14:44.536Z,101222.85
2023-01-17T18:18:03.880Z,101225.67
2023-01-17T18:21:32.849Z,101222.94
2023-01-17T18:25:03.628Z,101230.61
2023-01-17T18:28:32.668Z,101227.21
2023-01-17T18:32:02.278Z,101229.27
2023-01-17T18:35:31.665Z,101235.68
2023-01-17T18:39:00.469Z,101228.75
2023-01-17T18:42:29.772Z,101226.58
2023-01-17T18:45:59.244Z,101224.58
2023-01-17T18:49:28.638Z,101221.50
2023-01-17T18:52:57.182Z,101212.45
2023-01-17T18:56:26.695Z,101211.71
2023-01-17T18:59:55.853Z,101211.87
2023-01-17T19:03:26.757Z,101210.82
2023-01-17T19:06:35.965Z,101218.42
2023-01-17T19:10:05.315Z,101221.80
2023-01-17T19:13:34.510Z,101223.59
2023-01-17T19:17:02.929Z,101224.86
2023-01-17T19:20:32.150Z,101224.21
2023-01-17T19:24:01.140Z,101215.83
2023-01-17T19:27:29.801Z,101214.04
2023-01-17T19:30:58.696Z,101217.73
2023-01-17T19:34:27.651Z,101213.45
2023-01-17T19:37:55.403Z,101213.68
2023-01-17T19:41:17.575Z,101209.02
2023-01-17T19:44:46.258Z,101209.52
2023-01-17T19:48:15.058Z,101200.92
2023-01-17T19:51:37.518Z,101206.75
2023-01-17T19:54:56.442Z,101201.12
2023-01-17T19:58:25.588Z,101201.77
2023-01-17T20:01:52.697Z,101199.63
2023-01-17T20:05:21.828Z,101196.61
2023-01-17T20:08:44.253Z,101194.77
2023-01-17T20:12:13.021Z,101196.34
2023-01-17T20:15:42.197Z,101190.57
2023-01-17T20:19:11.761Z,101192.31
2023-01-17T20:22:40.776Z,101195.83
2023-01-17T20:25:59.188Z,101192.73
2023-01-17T20:29:28.286Z,101189.99
2023-01-17T20:32:57.031Z,101191.35
2023-01-17T20:36:26.215Z,101190.12
2023-01-17T20:39:55.342Z,101193.92
2023-01-17T20:43:24.484Z,101197.11
2023-01-17T20:46:50.153Z,101197.92
2023-01-17T20:50:09.549Z,101200.14
2023-01-17T20:53:38.545Z,101194.40
2023-01-17T20:57:00.917Z,101194.52
2023-01-17T21:00:29.739Z,101192.46
2023-01-17T21:03:59.103Z,101187.13
2023-01-17T21:07:28.201Z,101182.73
2023-01-17T21:10:57.155Z,101179.71
2023-01-17T21:14:26.268Z,101181.94
2023-01-17T21:17:51.323Z,101180.55
2023-01-17T21:21:03.629Z,101179.04
2023-01-17T21:24:32.657Z,101179.11
2023-01-17T21:28:02.043Z,101179.29
2023-01-17T21:31:46.211Z,101180.57
2023-01-17T21:35:15.668Z,101183.91
2023-01-17T21:38:37.763Z,101178.23
2023-01-17T21:42:07.437Z,101182.20
2023-01-17T21:45:36.866Z,101176.48
2023-01-17T21:48:49.519Z,101175.80
2023-01-17T21:52:18.673Z,101170.98
2023-01-17T21:55:45.712Z,101169.33
2023-01-17T21:59:14.889Z,101166.62
2023-01-17T22:02:43.649Z,101168.23
2023-01-17T22:06:11.686Z,101163.46
2023-01-17T22:09:40.575Z,101163.85
2023-01-17T22:13:09.773Z,101163.68
2023-01-17T22:16:41.685Z,101165.95
2023-01-17T22:20:00.184Z,101162.49
2023-01-17T22:23:28.882Z,101162.59
2023-01-17T22:26:57.575Z,101161.83
2023-01-17T22:30:20.092Z,101157.89
2023-01-17T22:33:48.923Z,101157.83
2023-01-17T22:37:17.719Z,101163.10
2023-01-17T22:40:46.879Z,101164.56
2023-01-17T22:44:15.882Z,101166.95
2023-01-17T22:47:44.687Z,101167.67
2023-01-17T22:51:14.096Z,101166.30
2023-01-17T22:54:49.493Z,101171.58
2023-01-17T22:58:18.873Z,101170.94
2023-01-17T23:01:50.714Z,101171.81
2023-01-17T23:05:19.484Z,101169.21
2023-01-17T23:08:48.291Z,101163.67
2023-01-17T23:12:22.975Z,101159.56
2023-01-17T23:15:50.027Z,101159.73
2023-01-17T23:19:13.453Z,101156.58
2023-01-17T23:22:42.077Z,101160.20
2023-01-17T23:26:11.048Z,101156.89
2023-01-17T23:29:32.607Z,101151.32
2023-01-17T23:33:01.389Z,101149.01
2023-01-17T23:36:12.741Z,101148.96
2023-01-17T23:39:41.876Z,101146.69
2023-01-17T23:43:08.861Z,101148.10
2023-01-17T23:46:15.715Z,101150.29
2023-01-17T23:49:44.512Z,101144.69
2023-01-17T23:53:14.211Z,101144.95
2023-01-17T23:56:43.727Z,101144.52
